Atlanta, Kansas
Current Conditions -  °F | °C
As of 2:35 AM on Thursday 18 Dec 2014 (Local Time) from KEQA Reporting Station
Light Snow Light Snow  
Wind Chill: -4°   Ceiling: 3500
Heat Index:   Visibility: 3mi
Dew Point: -1°   Wind: 8mph
Humidity: 93%   Direction: 110°ESE
Pressure: 30.14"   Gusts: NA
Location:  37.44°N, 96.76°W
Report Text: KEQA 180835Z AUTO 11007KT 3SM -SN SCT008 BKN035 OVC047 00/M01 A3014 RMK AO2
Loading
Personal Weather Stations






























Interactive Weather Map New forecast layout! Learn more

10-Day Weather Forecast

Advertisements
Track Severe Weather on mobile